sensor_id;sensor_type;location;lat;lon;timestamp;P1;durP1;ratioP1;P2;durP2;ratioP2
31910;SDS011;18457;52.432;16.914;2024-01-10T00:00:52;366.10;;;129.90;;
31910;SDS011;18457;52.432;16.914;2024-01-10T00:03:44;365.60;;;131.90;;
31910;SDS011;18457;52.432;16.914;2024-01-10T00:06:16;404.60;;;132.80;;
31910;SDS011;18457;52.432;16.914;2024-01-10T00:08:48;383.80;;;132.90;;
31910;SDS011;18457;52.432;16.914;2024-01-10T00:11:20;381.60;;;130.60;;
31910;SDS011;18457;52.432;16.914;2024-01-10T00:13:52;394.50;;;135.50;;
31910;SDS011;18457;52.432;16.914;2024-01-10T00:16:29;355.50;;;129.60;;
31910;SDS011;18457;52.432;16.914;2024-01-10T00:19:01;354.40;;;130.50;;
31910;SDS011;18457;52.432;16.914;2024-01-10T00:21:33;381.10;;;130.30;;
31910;SDS011;18457;52.432;16.914;2024-01-10T00:24:05;388.50;;;131.80;;
31910;SDS011;18457;52.432;16.914;2024-01-10T00:26:37;414.80;;;143.80;;
31910;SDS011;18457;52.432;16.914;2024-01-10T00:29:09;399.00;;;135.20;;
31910;SDS011;18457;52.432;16.914;2024-01-10T00:34:13;383.50;;;130.80;;
31910;SDS011;18457;52.432;16.914;2024-01-10T00:36:45;354.70;;;122.50;;
31910;SDS011;18457;52.432;16.914;2024-01-10T00:39:17;383.00;;;130.30;;
31910;SDS011;18457;52.432;16.914;2024-01-10T00:41:49;377.10;;;127.60;;
31910;SDS011;18457;52.432;16.914;2024-01-10T00:44:21;361.80;;;129.60;;
31910;SDS011;18457;52.432;16.914;2024-01-10T00:46:53;381.70;;;134.70;;
31910;SDS011;18457;52.432;16.914;2024-01-10T00:49:25;400.00;;;139.10;;
31910;SDS011;18457;52.432;16.914;2024-01-10T00:51:57;408.00;;;136.80;;
31910;SDS011;18457;52.432;16.914;2024-01-10T00:54:28;407.50;;;142.50;;
31910;SDS011;18457;52.432;16.914;2024-01-10T00:57:00;411.80;;;138.00;;
31910;SDS011;18457;52.432;16.914;2024-01-10T00:59:32;408.60;;;146.50;;
31910;SDS011;18457;52.432;16.914;2024-01-10T01:02:04;403.70;;;134.80;;
31910;SDS011;18457;52.432;16.914;2024-01-10T01:04:36;392.40;;;134.90;;
31910;SDS011;18457;52.432;16.914;2024-01-10T01:07:08;358.90;;;129.70;;
31910;SDS011;18457;52.432;16.914;2024-01-10T01:09:40;361.30;;;125.80;;
31910;SDS011;18457;52.432;16.914;2024-01-10T01:12:12;368.50;;;128.20;;
31910;SDS011;18457;52.432;16.914;2024-01-10T01:14:44;369.50;;;126.80;;
31910;SDS011;18457;52.432;16.914;2024-01-10T01:17:16;368.90;;;128.90;;
31910;SDS011;18457;52.432;16.914;2024-01-10T01:19:48;348.90;;;127.60;;
31910;SDS011;18457;52.432;16.914;2024-01-10T01:22:20;356.90;;;129.90;;
31910;SDS011;18457;52.432;16.914;2024-01-10T01:24:52;343.80;;;120.60;;
31910;SDS011;18457;52.432;16.914;2024-01-10T01:27:25;342.50;;;119.40;;
31910;SDS011;18457;52.432;16.914;2024-01-10T01:29:57;353.10;;;125.80;;
31910;SDS011;18457;52.432;16.914;2024-01-10T01:32:29;333.80;;;125.20;;
31910;SDS011;18457;52.432;16.914;2024-01-10T01:35:01;345.90;;;125.50;;
31910;SDS011;18457;52.432;16.914;2024-01-10T01:37:33;350.00;;;123.30;;
31910;SDS011;18457;52.432;16.914;2024-01-10T01:40:06;334.20;;;122.70;;
31910;SDS011;18457;52.432;16.914;2024-01-10T01:42:39;343.30;;;125.90;;
31910;SDS011;18457;52.432;16.914;2024-01-10T01:45:11;347.30;;;122.70;;
31910;SDS011;18457;52.432;16.914;2024-01-10T01:50:14;330.00;;;115.70;;
31910;SDS011;18457;52.432;16.914;2024-01-10T01:55:17;326.00;;;117.10;;
31910;SDS011;18457;52.432;16.914;2024-01-10T01:57:49;362.70;;;134.20;;
31910;SDS011;18457;52.432;16.914;2024-01-10T02:00:21;324.90;;;120.30;;
31910;SDS011;18457;52.432;16.914;2024-01-10T02:02:53;352.20;;;129.40;;
31910;SDS011;18457;52.432;16.914;2024-01-10T02:05:25;335.90;;;125.30;;
31910;SDS011;18457;52.432;16.914;2024-01-10T02:07:58;332.20;;;123.40;;
31910;SDS011;18457;52.432;16.914;2024-01-10T02:10:30;351.10;;;122.00;;
31910;SDS011;18457;52.432;16.914;2024-01-10T02:13:02;337.20;;;121.50;;
31910;SDS011;18457;52.432;16.914;2024-01-10T02:15:35;328.70;;;123.40;;
31910;SDS011;18457;52.432;16.914;2024-01-10T02:18:07;352.40;;;122.80;;
31910;SDS011;18457;52.432;16.914;2024-01-10T02:20:44;368.40;;;128.40;;
31910;SDS011;18457;52.432;16.914;2024-01-10T02:23:16;355.30;;;128.00;;
31910;SDS011;18457;52.432;16.914;2024-01-10T02:25:48;374.50;;;124.60;;
31910;SDS011;18457;52.432;16.914;2024-01-10T02:28:20;354.80;;;122.80;;
31910;SDS011;18457;52.432;16.914;2024-01-10T02:30:53;350.30;;;128.30;;
31910;SDS011;18457;52.432;16.914;2024-01-10T02:33:27;359.00;;;127.20;;
31910;SDS011;18457;52.432;16.914;2024-01-10T02:35:59;362.40;;;125.90;;
31910;SDS011;18457;52.432;16.914;2024-01-10T02:38:31;333.70;;;126.50;;
31910;SDS011;18457;52.432;16.914;2024-01-10T02:41:03;355.40;;;126.30;;
31910;SDS011;18457;52.432;16.914;2024-01-10T02:43:35;351.90;;;126.80;;
31910;SDS011;18457;52.432;16.914;2024-01-10T02:46:07;371.30;;;127.60;;
31910;SDS011;18457;52.432;16.914;2024-01-10T02:48:38;367.90;;;128.10;;
31910;SDS011;18457;52.432;16.914;2024-01-10T02:53:41;362.50;;;123.40;;
31910;SDS011;18457;52.432;16.914;2024-01-10T02:56:13;346.20;;;119.70;;
31910;SDS011;18457;52.432;16.914;2024-01-10T02:58:45;336.40;;;116.80;;
31910;SDS011;18457;52.432;16.914;2024-01-10T03:01:17;319.80;;;117.10;;
31910;SDS011;18457;52.432;16.914;2024-01-10T03:03:50;347.50;;;121.00;;
31910;SDS011;18457;52.432;16.914;2024-01-10T03:06:24;341.70;;;120.70;;
31910;SDS011;18457;52.432;16.914;2024-01-10T03:08:56;334.30;;;124.00;;
31910;SDS011;18457;52.432;16.914;2024-01-10T03:11:28;334.70;;;122.00;;
31910;SDS011;18457;52.432;16.914;2024-01-10T03:14:01;328.90;;;113.80;;
31910;SDS011;18457;52.432;16.914;2024-01-10T03:16:37;324.70;;;119.50;;
31910;SDS011;18457;52.432;16.914;2024-01-10T03:19:09;338.00;;;118.70;;
31910;SDS011;18457;52.432;16.914;2024-01-10T03:21:41;352.60;;;121.20;;
31910;SDS011;18457;52.432;16.914;2024-01-10T03:24:13;334.30;;;122.00;;
31910;SDS011;18457;52.432;16.914;2024-01-10T03:26:44;329.10;;;120.00;;
31910;SDS011;18457;52.432;16.914;2024-01-10T03:29:16;322.60;;;114.80;;
31910;SDS011;18457;52.432;16.914;2024-01-10T03:31:48;341.10;;;118.20;;
31910;SDS011;18457;52.432;16.914;2024-01-10T03:34:21;323.40;;;118.50;;
31910;SDS011;18457;52.432;16.914;2024-01-10T03:36:53;347.80;;;120.70;;
31910;SDS011;18457;52.432;16.914;2024-01-10T03:39:25;337.40;;;117.50;;
31910;SDS011;18457;52.432;16.914;2024-01-10T03:41:56;328.80;;;115.90;;
31910;SDS011;18457;52.432;16.914;2024-01-10T03:44:28;334.50;;;117.20;;
31910;SDS011;18457;52.432;16.914;2024-01-10T03:47:00;317.80;;;113.10;;
31910;SDS011;18457;52.432;16.914;2024-01-10T03:49:32;311.40;;;112.20;;
31910;SDS011;18457;52.432;16.914;2024-01-10T03:52:05;286.50;;;108.40;;
31910;SDS011;18457;52.432;16.914;2024-01-10T03:57:07;321.50;;;110.90;;
31910;SDS011;18457;52.432;16.914;2024-01-10T03:59:39;313.50;;;113.90;;
31910;SDS011;18457;52.432;16.914;2024-01-10T04:02:11;319.10;;;112.10;;
31910;SDS011;18457;52.432;16.914;2024-01-10T04:04:43;321.10;;;111.70;;
31910;SDS011;18457;52.432;16.914;2024-01-10T04:07:15;348.10;;;116.10;;
31910;SDS011;18457;52.432;16.914;2024-01-10T04:09:47;320.30;;;116.40;;
31910;SDS011;18457;52.432;16.914;2024-01-10T04:12:19;331.90;;;116.20;;
31910;SDS011;18457;52.432;16.914;2024-01-10T04:14:51;344.30;;;118.40;;
31910;SDS011;18457;52.432;16.914;2024-01-10T04:17:22;328.40;;;122.30;;
31910;SDS011;18457;52.432;16.914;2024-01-10T04:19:55;357.10;;;124.50;;
31910;SDS011;18457;52.432;16.914;2024-01-10T04:22:27;336.50;;;123.50;;
31910;SDS011;18457;52.432;16.914;2024-01-10T04:25:00;277.40;;;96.70;;
31910;SDS011;18457;52.432;16.914;2024-01-10T04:27:34;350.30;;;123.90;;
31910;SDS011;18457;52.432;16.914;2024-01-10T04:32:38;257.80;;;94.30;;
31910;SDS011;18457;52.432;16.914;2024-01-10T04:35:10;358.70;;;125.90;;
31910;SDS011;18457;52.432;16.914;2024-01-10T04:37:42;369.30;;;132.30;;
31910;SDS011;18457;52.432;16.914;2024-01-10T04:40:14;350.60;;;130.80;;
31910;SDS011;18457;52.432;16.914;2024-01-10T04:42:46;356.70;;;129.40;;
31910;SDS011;18457;52.432;16.914;2024-01-10T04:45:18;349.20;;;129.20;;
31910;SDS011;18457;52.432;16.914;2024-01-10T04:47:50;378.30;;;128.30;;
31910;SDS011;18457;52.432;16.914;2024-01-10T04:50:22;363.90;;;130.70;;
31910;SDS011;18457;52.432;16.914;2024-01-10T04:52:54;372.30;;;131.80;;
31910;SDS011;18457;52.432;16.914;2024-01-10T04:55:26;347.80;;;131.00;;
31910;SDS011;18457;52.432;16.914;2024-01-10T04:57:58;354.30;;;128.40;;
31910;SDS011;18457;52.432;16.914;2024-01-10T05:00:30;356.00;;;129.10;;
31910;SDS011;18457;52.432;16.914;2024-01-10T05:03:02;355.00;;;126.70;;
31910;SDS011;18457;52.432;16.914;2024-01-10T05:05:35;358.60;;;131.60;;
31910;SDS011;18457;52.432;16.914;2024-01-10T05:10:38;377.40;;;118.70;;
31910;SDS011;18457;52.432;16.914;2024-01-10T05:13:10;339.90;;;122.30;;
31910;SDS011;18457;52.432;16.914;2024-01-10T05:15:42;330.30;;;122.00;;
31910;SDS011;18457;52.432;16.914;2024-01-10T05:18:14;331.20;;;118.50;;
31910;SDS011;18457;52.432;16.914;2024-01-10T05:20:47;346.00;;;120.40;;
31910;SDS011;18457;52.432;16.914;2024-01-10T05:23:19;312.90;;;118.70;;
31910;SDS011;18457;52.432;16.914;2024-01-10T05:25:51;328.40;;;122.20;;
31910;SDS011;18457;52.432;16.914;2024-01-10T05:28:23;342.40;;;123.20;;
31910;SDS011;18457;52.432;16.914;2024-01-10T05:30:55;331.10;;;116.80;;
31910;SDS011;18457;52.432;16.914;2024-01-10T05:35:58;333.70;;;114.90;;
31910;SDS011;18457;52.432;16.914;2024-01-10T05:38:30;338.60;;;118.70;;
31910;SDS011;18457;52.432;16.914;2024-01-10T05:41:02;344.00;;;121.50;;
31910;SDS011;18457;52.432;16.914;2024-01-10T05:43:34;334.30;;;123.70;;
31910;SDS011;18457;52.432;16.914;2024-01-10T05:46:06;328.20;;;121.00;;
31910;SDS011;18457;52.432;16.914;2024-01-10T05:48:39;330.70;;;120.40;;
31910;SDS011;18457;52.432;16.914;2024-01-10T05:51:11;312.90;;;117.30;;
31910;SDS011;18457;52.432;16.914;2024-01-10T05:53:43;321.20;;;118.50;;
31910;SDS011;18457;52.432;16.914;2024-01-10T05:56:15;321.20;;;117.60;;
31910;SDS011;18457;52.432;16.914;2024-01-10T05:58:47;316.90;;;117.80;;
31910;SDS011;18457;52.432;16.914;2024-01-10T06:01:20;326.90;;;115.40;;
31910;SDS011;18457;52.432;16.914;2024-01-10T06:03:52;323.40;;;116.50;;
31910;SDS011;18457;52.432;16.914;2024-01-10T06:06:24;317.50;;;114.80;;
31910;SDS011;18457;52.432;16.914;2024-01-10T06:08:56;313.50;;;112.70;;
31910;SDS011;18457;52.432;16.914;2024-01-10T06:11:28;305.00;;;113.80;;
31910;SDS011;18457;52.432;16.914;2024-01-10T06:14:01;315.60;;;115.10;;
31910;SDS011;18457;52.432;16.914;2024-01-10T06:16:33;344.00;;;117.50;;
31910;SDS011;18457;52.432;16.914;2024-01-10T06:19:05;318.50;;;113.10;;
31910;SDS011;18457;52.432;16.914;2024-01-10T06:21:39;322.00;;;118.00;;
31910;SDS011;18457;52.432;16.914;2024-01-10T06:24:11;321.10;;;118.80;;
31910;SDS011;18457;52.432;16.914;2024-01-10T06:26:43;345.40;;;118.60;;
31910;SDS011;18457;52.432;16.914;2024-01-10T06:29:15;318.30;;;120.60;;
31910;SDS011;18457;52.432;16.914;2024-01-10T06:31:47;336.00;;;124.60;;
31910;SDS011;18457;52.432;16.914;2024-01-10T06:34:20;336.00;;;117.60;;
31910;SDS011;18457;52.432;16.914;2024-01-10T06:36:52;317.40;;;120.40;;
31910;SDS011;18457;52.432;16.914;2024-01-10T06:39:24;328.50;;;116.90;;
31910;SDS011;18457;52.432;16.914;2024-01-10T06:41:56;331.10;;;117.40;;
31910;SDS011;18457;52.432;16.914;2024-01-10T06:44:29;342.70;;;120.60;;
31910;SDS011;18457;52.432;16.914;2024-01-10T06:49:32;320.90;;;116.80;;
31910;SDS011;18457;52.432;16.914;2024-01-10T06:52:04;334.20;;;117.10;;
31910;SDS011;18457;52.432;16.914;2024-01-10T06:54:37;340.60;;;121.90;;
31910;SDS011;18457;52.432;16.914;2024-01-10T06:57:09;325.60;;;118.60;;
31910;SDS011;18457;52.432;16.914;2024-01-10T06:59:41;327.20;;;119.50;;
31910;SDS011;18457;52.432;16.914;2024-01-10T07:02:13;320.20;;;116.90;;
31910;SDS011;18457;52.432;16.914;2024-01-10T07:04:46;335.20;;;119.50;;
31910;SDS011;18457;52.432;16.914;2024-01-10T07:07:18;319.30;;;117.30;;
31910;SDS011;18457;52.432;16.914;2024-01-10T07:09:51;329.30;;;118.90;;
31910;SDS011;18457;52.432;16.914;2024-01-10T07:12:22;310.70;;;117.00;;
31910;SDS011;18457;52.432;16.914;2024-01-10T07:14:55;309.80;;;120.60;;
31910;SDS011;18457;52.432;16.914;2024-01-10T07:17:26;328.90;;;117.80;;
31910;SDS011;18457;52.432;16.914;2024-01-10T07:22:30;331.80;;;119.20;;
31910;SDS011;18457;52.432;16.914;2024-01-10T07:25:04;337.80;;;117.90;;
31910;SDS011;18457;52.432;16.914;2024-01-10T07:27:37;323.90;;;114.60;;
31910;SDS011;18457;52.432;16.914;2024-01-10T07:30:09;327.80;;;118.80;;
31910;SDS011;18457;52.432;16.914;2024-01-10T07:32:44;330.60;;;119.70;;
31910;SDS011;18457;52.432;16.914;2024-01-10T07:35:17;335.80;;;119.60;;
31910;SDS011;18457;52.432;16.914;2024-01-10T07:37:50;339.30;;;124.50;;
31910;SDS011;18457;52.432;16.914;2024-01-10T07:40:22;356.40;;;126.60;;
31910;SDS011;18457;52.432;16.914;2024-01-10T07:42:54;335.30;;;121.90;;
31910;SDS011;18457;52.432;16.914;2024-01-10T07:45:26;349.40;;;120.20;;
31910;SDS011;18457;52.432;16.914;2024-01-10T07:47:59;349.30;;;120.50;;
31910;SDS011;18457;52.432;16.914;2024-01-10T07:50:31;334.20;;;124.80;;
31910;SDS011;18457;52.432;16.914;2024-01-10T07:53:04;349.50;;;125.10;;
31910;SDS011;18457;52.432;16.914;2024-01-10T07:55:37;342.70;;;122.00;;
31910;SDS011;18457;52.432;16.914;2024-01-10T07:58:09;334.00;;;122.70;;
31910;SDS011;18457;52.432;16.914;2024-01-10T08:00:41;360.40;;;125.40;;
31910;SDS011;18457;52.432;16.914;2024-01-10T08:03:14;351.20;;;124.60;;
31910;SDS011;18457;52.432;16.914;2024-01-10T08:05:46;333.60;;;124.50;;
31910;SDS011;18457;52.432;16.914;2024-01-10T08:08:18;340.40;;;123.30;;
31910;SDS011;18457;52.432;16.914;2024-01-10T08:10:50;353.60;;;124.30;;
31910;SDS011;18457;52.432;16.914;2024-01-10T08:13:22;352.00;;;126.70;;
31910;SDS011;18457;52.432;16.914;2024-01-10T08:15:54;338.50;;;120.40;;
31910;SDS011;18457;52.432;16.914;2024-01-10T08:18:26;342.40;;;123.20;;
31910;SDS011;18457;52.432;16.914;2024-01-10T08:20:59;310.70;;;114.60;;
31910;SDS011;18457;52.432;16.914;2024-01-10T08:23:33;335.20;;;117.80;;
31910;SDS011;18457;52.432;16.914;2024-01-10T08:26:07;301.30;;;118.50;;
31910;SDS011;18457;52.432;16.914;2024-01-10T08:28:39;326.70;;;115.80;;
31910;SDS011;18457;52.432;16.914;2024-01-10T08:33:42;311.20;;;112.60;;
31910;SDS011;18457;52.432;16.914;2024-01-10T08:36:16;308.10;;;113.80;;
31910;SDS011;18457;52.432;16.914;2024-01-10T08:38:48;324.10;;;114.60;;
31910;SDS011;18457;52.432;16.914;2024-01-10T08:41:21;324.20;;;121.10;;
31910;SDS011;18457;52.432;16.914;2024-01-10T08:43:53;362.90;;;130.30;;
31910;SDS011;18457;52.432;16.914;2024-01-10T08:46:26;344.40;;;130.40;;
31910;SDS011;18457;52.432;16.914;2024-01-10T08:48:58;359.10;;;128.30;;
31910;SDS011;18457;52.432;16.914;2024-01-10T08:51:30;371.70;;;130.30;;
31910;SDS011;18457;52.432;16.914;2024-01-10T08:54:02;353.20;;;128.10;;
31910;SDS011;18457;52.432;16.914;2024-01-10T08:56:34;361.20;;;125.80;;
31910;SDS011;18457;52.432;16.914;2024-01-10T08:59:06;372.90;;;126.00;;
31910;SDS011;18457;52.432;16.914;2024-01-10T09:01:38;337.80;;;122.90;;
31910;SDS011;18457;52.432;16.914;2024-01-10T09:06:41;341.20;;;124.00;;
31910;SDS011;18457;52.432;16.914;2024-01-10T09:09:13;352.60;;;128.40;;
31910;SDS011;18457;52.432;16.914;2024-01-10T09:11:50;333.50;;;122.10;;
31910;SDS011;18457;52.432;16.914;2024-01-10T09:14:22;335.10;;;121.60;;
31910;SDS011;18457;52.432;16.914;2024-01-10T09:16:54;323.40;;;118.40;;
31910;SDS011;18457;52.432;16.914;2024-01-10T09:19:28;310.60;;;113.50;;
31910;SDS011;18457;52.432;16.914;2024-01-10T09:24:31;296.90;;;107.30;;
31910;SDS011;18457;52.432;16.914;2024-01-10T09:27:04;296.60;;;104.50;;
31910;SDS011;18457;52.432;16.914;2024-01-10T09:29:36;260.30;;;92.90;;
31910;SDS011;18457;52.432;16.914;2024-01-10T09:32:08;235.40;;;84.90;;
31910;SDS011;18457;52.432;16.914;2024-01-10T09:34:41;223.90;;;79.40;;
31910;SDS011;18457;52.432;16.914;2024-01-10T09:37:12;220.90;;;80.10;;
31910;SDS011;18457;52.432;16.914;2024-01-10T09:39:44;227.00;;;83.00;;
31910;SDS011;18457;52.432;16.914;2024-01-10T09:42:16;217.70;;;80.70;;
31910;SDS011;18457;52.432;16.914;2024-01-10T09:44:50;232.90;;;85.70;;
31910;SDS011;18457;52.432;16.914;2024-01-10T09:47:22;230.80;;;83.90;;
31910;SDS011;18457;52.432;16.914;2024-01-10T09:49:56;219.40;;;85.40;;
31910;SDS011;18457;52.432;16.914;2024-01-10T09:52:33;241.10;;;85.40;;
31910;SDS011;18457;52.432;16.914;2024-01-10T09:55:09;203.00;;;78.80;;
31910;SDS011;18457;52.432;16.914;2024-01-10T09:57:42;220.80;;;81.60;;
31910;SDS011;18457;52.432;16.914;2024-01-10T10:00:15;249.60;;;89.10;;
31910;SDS011;18457;52.432;16.914;2024-01-10T10:02:50;250.20;;;96.60;;
31910;SDS011;18457;52.432;16.914;2024-01-10T10:05:24;278.90;;;103.40;;
31910;SDS011;18457;52.432;16.914;2024-01-10T10:07:57;282.10;;;103.40;;
31910;SDS011;18457;52.432;16.914;2024-01-10T10:10:29;301.00;;;103.70;;
31910;SDS011;18457;52.432;16.914;2024-01-10T10:13:02;274.90;;;106.10;;
31910;SDS011;18457;52.432;16.914;2024-01-10T10:15:38;289.60;;;105.40;;
31910;SDS011;18457;52.432;16.914;2024-01-10T10:18:13;217.30;;;77.80;;
31910;SDS011;18457;52.432;16.914;2024-01-10T10:20:45;293.80;;;104.30;;
31910;SDS011;18457;52.432;16.914;2024-01-10T10:23:17;283.80;;;101.70;;
31910;SDS011;18457;52.432;16.914;2024-01-10T10:25:51;291.70;;;102.70;;
31910;SDS011;18457;52.432;16.914;2024-01-10T10:28:27;264.90;;;100.80;;
31910;SDS011;18457;52.432;16.914;2024-01-10T10:31:04;271.50;;;98.40;;
31910;SDS011;18457;52.432;16.914;2024-01-10T10:33:37;250.20;;;94.70;;
31910;SDS011;18457;52.432;16.914;2024-01-10T10:36:09;247.10;;;90.10;;
31910;SDS011;18457;52.432;16.914;2024-01-10T10:38:47;256.90;;;92.70;;
31910;SDS011;18457;52.432;16.914;2024-01-10T10:41:19;225.40;;;88.90;;
31910;SDS011;18457;52.432;16.914;2024-01-10T10:43:51;206.40;;;73.70;;
31910;SDS011;18457;52.432;16.914;2024-01-10T10:46:25;181.50;;;68.20;;
31910;SDS011;18457;52.432;16.914;2024-01-10T10:49:00;185.30;;;68.40;;
31910;SDS011;18457;52.432;16.914;2024-01-10T10:51:41;175.50;;;67.90;;
31910;SDS011;18457;52.432;16.914;2024-01-10T10:54:13;170.10;;;63.70;;
31910;SDS011;18457;52.432;16.914;2024-01-10T10:56:47;182.20;;;68.20;;
31910;SDS011;18457;52.432;16.914;2024-01-10T10:59:21;197.70;;;69.30;;
31910;SDS011;18457;52.432;16.914;2024-01-10T11:01:56;189.30;;;75.10;;
31910;SDS011;18457;52.432;16.914;2024-01-10T11:04:28;208.10;;;73.30;;
31910;SDS011;18457;52.432;16.914;2024-01-10T11:07:02;195.30;;;72.00;;
31910;SDS011;18457;52.432;16.914;2024-01-10T11:09:35;219.40;;;73.70;;
31910;SDS011;18457;52.432;16.914;2024-01-10T11:12:12;176.00;;;70.70;;
31910;SDS011;18457;52.432;16.914;2024-01-10T11:15:01;190.80;;;71.10;;
31910;SDS011;18457;52.432;16.914;2024-01-10T11:20:56;164.90;;;60.50;;
31910;SDS011;18457;52.432;16.914;2024-01-10T11:23:42;167.10;;;63.00;;
31910;SDS011;18457;52.432;16.914;2024-01-10T11:26:18;166.10;;;63.70;;
31910;SDS011;18457;52.432;16.914;2024-01-10T11:28:51;180.30;;;67.30;;
31910;SDS011;18457;52.432;16.914;2024-01-10T11:31:28;177.80;;;65.90;;
31910;SDS011;18457;52.432;16.914;2024-01-10T11:34:01;177.40;;;68.20;;
31910;SDS011;18457;52.432;16.914;2024-01-10T11:36:34;177.30;;;69.60;;
31910;SDS011;18457;52.432;16.914;2024-01-10T11:39:06;192.40;;;68.50;;
31910;SDS011;18457;52.432;16.914;2024-01-10T11:41:41;189.80;;;69.90;;
31910;SDS011;18457;52.432;16.914;2024-01-10T11:44:27;191.20;;;71.00;;
31910;SDS011;18457;52.432;16.914;2024-01-10T11:47:03;195.70;;;71.40;;
31910;SDS011;18457;52.432;16.914;2024-01-10T11:49:35;209.20;;;75.70;;
31910;SDS011;18457;52.432;16.914;2024-01-10T11:52:08;224.30;;;74.50;;
31910;SDS011;18457;52.432;16.914;2024-01-10T11:54:43;208.40;;;77.60;;
31910;SDS011;18457;52.432;16.914;2024-01-10T11:57:19;218.70;;;79.70;;
31910;SDS011;18457;52.432;16.914;2024-01-10T11:59:52;229.30;;;80.00;;
31910;SDS011;18457;52.432;16.914;2024-01-10T12:02:25;219.70;;;80.90;;
31910;SDS011;18457;52.432;16.914;2024-01-10T12:05:00;211.90;;;80.50;;
31910;SDS011;18457;52.432;16.914;2024-01-10T12:07:33;216.30;;;80.00;;
31910;SDS011;18457;52.432;16.914;2024-01-10T12:10:07;217.20;;;81.20;;
31910;SDS011;18457;52.432;16.914;2024-01-10T12:12:40;222.00;;;81.80;;
31910;SDS011;18457;52.432;16.914;2024-01-10T12:15:12;216.10;;;85.00;;
31910;SDS011;18457;52.432;16.914;2024-01-10T12:17:44;218.80;;;88.90;;
31910;SDS011;18457;52.432;16.914;2024-01-10T12:20:17;239.30;;;85.90;;
31910;SDS011;18457;52.432;16.914;2024-01-10T12:22:49;233.00;;;88.40;;
31910;SDS011;18457;52.432;16.914;2024-01-10T12:25:22;231.70;;;93.40;;
31910;SDS011;18457;52.432;16.914;2024-01-10T12:27:55;235.00;;;88.20;;
31910;SDS011;18457;52.432;16.914;2024-01-10T12:30:31;223.00;;;86.60;;
31910;SDS011;18457;52.432;16.914;2024-01-10T12:33:04;252.90;;;93.10;;
31910;SDS011;18457;52.432;16.914;2024-01-10T12:35:36;258.30;;;96.20;;
31910;SDS011;18457;52.432;16.914;2024-01-10T12:38:11;251.60;;;95.60;;
31910;SDS011;18457;52.432;16.914;2024-01-10T12:40:45;249.20;;;92.90;;
31910;SDS011;18457;52.432;16.914;2024-01-10T12:43:17;262.40;;;93.90;;
31910;SDS011;18457;52.432;16.914;2024-01-10T12:46:03;230.40;;;85.40;;
31910;SDS011;18457;52.432;16.914;2024-01-10T12:48:36;182.10;;;67.60;;
31910;SDS011;18457;52.432;16.914;2024-01-10T12:51:11;160.60;;;61.90;;
31910;SDS011;18457;52.432;16.914;2024-01-10T12:53:43;158.70;;;60.20;;
31910;SDS011;18457;52.432;16.914;2024-01-10T12:56:16;141.60;;;54.60;;
31910;SDS011;18457;52.432;16.914;2024-01-10T12:58:48;153.90;;;57.60;;
31910;SDS011;18457;52.432;16.914;2024-01-10T13:01:20;147.30;;;54.80;;
31910;SDS011;18457;52.432;16.914;2024-01-10T13:03:54;137.40;;;53.50;;
31910;SDS011;18457;52.432;16.914;2024-01-10T13:06:26;162.50;;;57.00;;
31910;SDS011;18457;52.432;16.914;2024-01-10T13:08:59;161.80;;;60.10;;
31910;SDS011;18457;52.432;16.914;2024-01-10T13:14:02;157.70;;;54.90;;
31910;SDS011;18457;52.432;16.914;2024-01-10T13:16:35;176.00;;;64.40;;
31910;SDS011;18457;52.432;16.914;2024-01-10T13:19:22;161.80;;;59.40;;
31910;SDS011;18457;52.432;16.914;2024-01-10T13:21:55;161.00;;;57.90;;
31910;SDS011;18457;52.432;16.914;2024-01-10T13:24:27;159.70;;;60.10;;
31910;SDS011;18457;52.432;16.914;2024-01-10T13:26:59;166.80;;;59.40;;
31910;SDS011;18457;52.432;16.914;2024-01-10T13:29:31;155.20;;;57.30;;
31910;SDS011;18457;52.432;16.914;2024-01-10T13:32:06;167.60;;;58.80;;
31910;SDS011;18457;52.432;16.914;2024-01-10T13:34:39;155.20;;;55.80;;
31910;SDS011;18457;52.432;16.914;2024-01-10T13:37:12;148.30;;;55.10;;
31910;SDS011;18457;52.432;16.914;2024-01-10T13:39:44;156.10;;;55.30;;
31910;SDS011;18457;52.432;16.914;2024-01-10T13:42:16;155.30;;;58.30;;
31910;SDS011;18457;52.432;16.914;2024-01-10T13:44:47;128.00;;;47.00;;
31910;SDS011;18457;52.432;16.914;2024-01-10T13:47:20;152.60;;;54.70;;
31910;SDS011;18457;52.432;16.914;2024-01-10T13:49:52;163.90;;;57.90;;
31910;SDS011;18457;52.432;16.914;2024-01-10T13:52:24;111.80;;;41.20;;
31910;SDS011;18457;52.432;16.914;2024-01-10T13:54:56;161.60;;;58.70;;
31910;SDS011;18457;52.432;16.914;2024-01-10T13:57:28;163.40;;;59.70;;
31910;SDS011;18457;52.432;16.914;2024-01-10T14:00:02;165.90;;;62.00;;
31910;SDS011;18457;52.432;16.914;2024-01-10T14:02:42;161.20;;;61.90;;
31910;SDS011;18457;52.432;16.914;2024-01-10T14:05:15;171.80;;;64.00;;
31910;SDS011;18457;52.432;16.914;2024-01-10T14:07:47;177.00;;;62.30;;
31910;SDS011;18457;52.432;16.914;2024-01-10T14:10:19;162.50;;;60.30;;
31910;SDS011;18457;52.432;16.914;2024-01-10T14:12:51;165.70;;;61.90;;
31910;SDS011;18457;52.432;16.914;2024-01-10T14:15:23;175.20;;;66.10;;
31910;SDS011;18457;52.432;16.914;2024-01-10T14:17:55;151.90;;;58.80;;
31910;SDS011;18457;52.432;16.914;2024-01-10T14:20:28;169.00;;;60.30;;
31910;SDS011;18457;52.432;16.914;2024-01-10T14:23:00;149.70;;;59.70;;
31910;SDS011;18457;52.432;16.914;2024-01-10T14:25:32;168.50;;;61.40;;
31910;SDS011;18457;52.432;16.914;2024-01-10T14:28:04;165.60;;;60.70;;
31910;SDS011;18457;52.432;16.914;2024-01-10T14:33:07;152.80;;;55.40;;
31910;SDS011;18457;52.432;16.914;2024-01-10T14:35:40;173.50;;;59.30;;
31910;SDS011;18457;52.432;16.914;2024-01-10T14:38:12;167.30;;;63.30;;
31910;SDS011;18457;52.432;16.914;2024-01-10T14:40:44;169.20;;;62.30;;
31910;SDS011;18457;52.432;16.914;2024-01-10T14:43:16;170.20;;;61.30;;
31910;SDS011;18457;52.432;16.914;2024-01-10T14:45:48;166.30;;;60.70;;
31910;SDS011;18457;52.432;16.914;2024-01-10T14:48:20;149.50;;;56.90;;
31910;SDS011;18457;52.432;16.914;2024-01-10T14:50:52;164.40;;;56.90;;
31910;SDS011;18457;52.432;16.914;2024-01-10T14:53:24;155.80;;;55.00;;
31910;SDS011;18457;52.432;16.914;2024-01-10T14:55:57;158.10;;;56.60;;
31910;SDS011;18457;52.432;16.914;2024-01-10T14:58:29;150.70;;;56.40;;
31910;SDS011;18457;52.432;16.914;2024-01-10T15:01:01;151.90;;;57.30;;